createdAt,value
2018-12-06T00:01:01.387Z,10.90
2018-12-06T00:03:44.258Z,9.93
2018-12-06T00:06:28.127Z,11.77
2018-12-06T00:09:09.916Z,11.13
2018-12-06T00:11:52.643Z,14.13
2018-12-06T00:14:35.499Z,12.47
2018-12-06T00:17:18.424Z,11.70
2018-12-06T00:20:00.918Z,11.30
2018-12-06T00:22:43.527Z,13.93
2018-12-06T00:25:27.144Z,13.07
2018-12-06T00:28:10.200Z,13.17
2018-12-06T00:30:51.731Z,12.73
2018-12-06T00:33:34.447Z,14.20
2018-12-06T00:36:16.585Z,15.33
2018-12-06T00:38:59.255Z,15.10
2018-12-06T00:41:41.721Z,16.53
2018-12-06T00:44:23.879Z,18.30
2018-12-06T00:47:06.337Z,21.23
2018-12-06T00:49:49.252Z,20.40
2018-12-06T00:52:31.323Z,20.93
2018-12-06T00:55:13.896Z,22.13
2018-12-06T00:57:57.047Z,24.97
2018-12-06T01:00:38.895Z,25.47
2018-12-06T01:03:20.444Z,24.47
2018-12-06T01:06:03.128Z,23.93
2018-12-06T01:08:45.334Z,24.10
2018-12-06T01:11:27.107Z,24.30
2018-12-06T01:14:09.545Z,26.10
2018-12-06T01:16:51.745Z,25.10
2018-12-06T01:19:34.806Z,26.73
2018-12-06T01:22:17.042Z,30.90
2018-12-06T01:24:59.176Z,29.37
2018-12-06T01:27:41.848Z,28.63
2018-12-06T01:30:24.327Z,32.93
2018-12-06T01:33:06.460Z,30.37
2018-12-06T01:35:48.787Z,29.70
2018-12-06T01:38:32.536Z,32.83
2018-12-06T01:41:14.556Z,30.13
2018-12-06T01:43:57.163Z,25.33
2018-12-06T01:46:39.411Z,24.30
2018-12-06T01:49:21.875Z,29.13
2018-12-06T01:52:04.337Z,26.53
2018-12-06T01:54:47.072Z,28.67
2018-12-06T01:57:29.203Z,26.47
2018-12-06T02:00:12.097Z,27.20
2018-12-06T02:02:54.343Z,25.13
2018-12-06T02:05:36.418Z,29.03
2018-12-06T02:08:18.892Z,28.03
2018-12-06T02:11:01.236Z,26.70
2018-12-06T02:13:42.936Z,25.83
2018-12-06T02:16:25.446Z,25.20
2018-12-06T02:19:08.209Z,27.43
2018-12-06T02:21:50.356Z,25.60
2018-12-06T02:24:32.874Z,27.53
2018-12-06T02:27:16.169Z,23.27
2018-12-06T02:29:57.712Z,25.83
2018-12-06T02:32:41.832Z,24.43
2018-12-06T02:35:23.726Z,24.43
2018-12-06T02:38:06.184Z,25.23
2018-12-06T02:40:49.784Z,22.53
2018-12-06T02:43:32.174Z,24.23
2018-12-06T02:46:13.765Z,22.00
2018-12-06T02:48:56.226Z,24.23
2018-12-06T02:51:38.548Z,21.13
2018-12-06T02:54:20.972Z,24.47
2018-12-06T02:57:04.027Z,25.97
2018-12-06T02:59:45.844Z,26.33
2018-12-06T03:02:28.502Z,22.87
2018-12-06T03:05:11.384Z,24.87
2018-12-06T03:07:53.263Z,22.00
2018-12-06T03:10:35.656Z,25.03
2018-12-06T03:13:18.444Z,23.37
2018-12-06T03:16:00.507Z,25.47
2018-12-06T03:18:42.615Z,22.13
2018-12-06T03:21:25.143Z,27.73
2018-12-06T03:24:07.207Z,22.87
2018-12-06T03:26:49.845Z,22.47
2018-12-06T03:29:32.202Z,23.50
2018-12-06T03:32:14.705Z,24.57
2018-12-06T03:34:57.002Z,23.07
2018-12-06T03:37:38.622Z,24.47
2018-12-06T03:40:21.075Z,22.50
2018-12-06T03:43:03.516Z,19.87
2018-12-06T03:45:45.901Z,27.70
2018-12-06T03:48:28.475Z,22.00
2018-12-06T03:51:10.830Z,19.83
2018-12-06T03:53:53.661Z,18.47
2018-12-06T03:56:35.679Z,19.43
2018-12-06T03:59:18.033Z,20.23
2018-12-06T04:01:59.670Z,19.47
2018-12-06T04:04:42.420Z,21.47
2018-12-06T04:07:24.408Z,18.77
2018-12-06T04:10:07.604Z,21.90
2018-12-06T04:12:49.468Z,26.20
2018-12-06T04:15:32.086Z,21.47
2018-12-06T04:18:14.291Z,22.60
2018-12-06T04:20:56.721Z,23.77
2018-12-06T04:23:39.163Z,24.67
2018-12-06T04:26:21.716Z,31.83
2018-12-06T04:29:04.132Z,25.57
2018-12-06T04:31:46.468Z,23.20
2018-12-06T04:34:27.990Z,28.33
2018-12-06T04:37:10.427Z,25.77
2018-12-06T04:39:52.815Z,22.43
2018-12-06T04:42:35.374Z,21.23
2018-12-06T04:45:17.800Z,23.93
2018-12-06T04:48:00.301Z,21.93
2018-12-06T04:50:42.724Z,23.77
2018-12-06T04:53:25.219Z,22.80
2018-12-06T04:56:07.491Z,22.17
2018-12-06T04:58:50.333Z,20.03
2018-12-06T05:01:32.415Z,22.43
2018-12-06T05:04:14.135Z,21.57
2018-12-06T05:06:56.874Z,22.20
2018-12-06T05:09:38.754Z,22.67
2018-12-06T05:12:21.191Z,21.63
2018-12-06T05:15:02.787Z,21.93
2018-12-06T05:17:45.112Z,22.83
2018-12-06T05:20:26.703Z,21.87
2018-12-06T05:23:09.183Z,22.40
2018-12-06T05:25:52.597Z,19.57
2018-12-06T05:28:34.172Z,22.93
2018-12-06T05:31:16.723Z,22.17
2018-12-06T05:33:58.970Z,23.90
2018-12-06T05:36:41.364Z,23.03
2018-12-06T05:39:23.739Z,17.93
2018-12-06T05:42:42.601Z,17.13
2018-12-06T05:45:25.843Z,22.03
2018-12-06T05:48:08.976Z,23.13
2018-12-06T05:50:51.616Z,19.57
2018-12-06T05:53:34.821Z,23.47
2018-12-06T05:56:18.749Z,26.13
2018-12-06T05:59:01.360Z,23.93
2018-12-06T06:01:43.447Z,26.47
2018-12-06T06:04:26.800Z,25.73
2018-12-06T06:07:10.154Z,25.87
2018-12-06T06:09:53.949Z,29.00
2018-12-06T06:12:37.818Z,28.03
2018-12-06T06:15:19.911Z,31.10
2018-12-06T06:18:04.563Z,41.93
2018-12-06T06:20:47.125Z,36.37
2018-12-06T06:23:29.778Z,36.97
2018-12-06T06:26:12.759Z,44.50
2018-12-06T06:28:54.798Z,55.97
2018-12-06T06:31:37.985Z,55.53
2018-12-06T06:34:47.151Z,54.60
2018-12-06T06:41:06.530Z,84.33
2018-12-06T06:43:48.564Z,73.67
2018-12-06T06:46:31.996Z,71.97
2018-12-06T06:49:15.254Z,77.90
2018-12-06T06:51:57.514Z,75.37
2018-12-06T06:54:41.217Z,79.07
2018-12-06T06:57:28.031Z,77.97
2018-12-06T07:00:16.183Z,67.47
2018-12-06T07:03:00.030Z,75.17
2018-12-06T07:05:44.375Z,78.67
2018-12-06T07:08:27.420Z,70.20
2018-12-06T07:11:10.263Z,74.93
2018-12-06T07:13:54.247Z,78.43
2018-12-06T07:16:36.942Z,84.63
2018-12-06T07:19:19.247Z,77.53
2018-12-06T07:22:02.024Z,67.90
2018-12-06T07:24:44.076Z,77.73
2018-12-06T07:27:27.963Z,80.27
2018-12-06T07:30:12.503Z,76.50
2018-12-06T07:32:55.903Z,70.90
2018-12-06T07:35:42.179Z,69.20
2018-12-06T07:38:25.240Z,78.70
2018-12-06T07:41:07.567Z,74.53
2018-12-06T07:43:49.919Z,69.93
2018-12-06T07:46:35.787Z,70.10
2018-12-06T07:49:18.179Z,72.83
2018-12-06T07:52:00.836Z,65.23
2018-12-06T07:54:46.372Z,70.10
2018-12-06T07:57:30.292Z,66.70
2018-12-06T08:00:14.875Z,68.33
2018-12-06T08:02:59.190Z,64.63
2018-12-06T08:05:43.427Z,72.97
2018-12-06T08:08:25.336Z,72.67
2018-12-06T08:11:08.144Z,66.20
2018-12-06T08:13:51.231Z,78.37
2018-12-06T08:16:37.200Z,67.20
2018-12-06T08:19:21.165Z,71.50
2018-12-06T08:22:04.193Z,66.13
2018-12-06T08:24:49.058Z,61.40
2018-12-06T08:27:42.424Z,71.33
2018-12-06T08:30:29.563Z,67.20
2018-12-06T08:33:12.238Z,69.17
2018-12-06T08:35:57.103Z,74.00
2018-12-06T08:38:39.728Z,64.40
2018-12-06T08:41:24.743Z,63.13
2018-12-06T08:44:08.047Z,76.63
2018-12-06T08:46:50.299Z,70.37
2018-12-06T08:49:32.883Z,63.07
2018-12-06T08:52:15.705Z,56.17
2018-12-06T08:54:58.602Z,57.20
2018-12-06T08:57:42.683Z,49.23
2018-12-06T09:00:25.591Z,48.50
2018-12-06T09:03:09.538Z,56.97
2018-12-06T09:05:53.559Z,48.53
2018-12-06T09:08:36.043Z,44.03
2018-12-06T09:11:18.925Z,57.53
2018-12-06T09:14:01.828Z,57.77
2018-12-06T09:16:43.787Z,50.23
2018-12-06T09:19:29.259Z,61.83
2018-12-06T09:22:12.182Z,58.00
2018-12-06T09:24:55.922Z,58.57
2018-12-06T09:27:41.626Z,50.43
2018-12-06T09:30:23.716Z,54.17
2018-12-06T09:33:07.997Z,54.23
2018-12-06T09:35:53.791Z,53.67
2018-12-06T09:38:36.592Z,51.40
2018-12-06T09:41:19.623Z,49.27
2018-12-06T09:44:03.304Z,51.47
2018-12-06T09:46:46.945Z,49.63
2018-12-06T09:49:30.086Z,51.30
2018-12-06T09:52:12.231Z,42.47
2018-12-06T09:54:55.814Z,43.30
2018-12-06T09:57:39.599Z,43.00
2018-12-06T10:00:22.652Z,38.07
2018-12-06T10:03:05.443Z,45.03
2018-12-06T10:05:47.547Z,44.97
2018-12-06T10:08:30.971Z,37.00
2018-12-06T10:11:15.039Z,43.20
2018-12-06T10:13:59.190Z,39.07
2018-12-06T10:16:48.043Z,49.30
2018-12-06T10:19:30.632Z,56.73
2018-12-06T10:22:14.208Z,58.60
2018-12-06T10:24:56.866Z,55.03
2018-12-06T10:27:41.752Z,65.03
2018-12-06T10:30:24.674Z,62.93
2018-12-06T10:33:08.691Z,69.60
2018-12-06T10:35:51.589Z,63.87
2018-12-06T10:38:34.071Z,67.23
2018-12-06T10:41:16.947Z,65.43
2018-12-06T10:43:59.177Z,73.80
2018-12-06T10:46:43.004Z,75.17
2018-12-06T10:49:26.899Z,78.40
2018-12-06T10:52:09.153Z,81.87
2018-12-06T10:54:54.190Z,83.27
2018-12-06T10:57:38.304Z,76.03
2018-12-06T11:00:27.595Z,80.23
2018-12-06T11:03:14.246Z,76.73
2018-12-06T11:06:07.299Z,82.20
2018-12-06T11:08:51.736Z,81.43
2018-12-06T11:11:35.220Z,99.10
2018-12-06T11:14:18.153Z,89.87
2018-12-06T11:17:00.967Z,91.30
2018-12-06T11:19:45.816Z,93.10
2018-12-06T11:22:28.718Z,81.27
2018-12-06T11:25:11.260Z,96.60
2018-12-06T11:27:53.526Z,88.73
2018-12-06T11:30:37.658Z,87.73
2018-12-06T11:33:19.573Z,82.23
2018-12-06T11:36:05.013Z,92.10
2018-12-06T11:38:47.991Z,93.20
2018-12-06T11:41:30.506Z,96.60
2018-12-06T11:44:15.245Z,106.83
2018-12-06T11:46:58.693Z,131.50
2018-12-06T11:49:41.191Z,125.60
2018-12-06T11:52:23.987Z,132.50
2018-12-06T11:55:07.607Z,128.70
2018-12-06T11:57:50.836Z,143.93
2018-12-06T12:00:32.843Z,139.33
2018-12-06T12:03:16.258Z,136.90
2018-12-06T12:05:59.234Z,127.87
2018-12-06T12:08:41.321Z,130.07
2018-12-06T12:11:26.561Z,134.47
2018-12-06T12:14:09.570Z,143.00
2018-12-06T12:16:53.047Z,142.60
2018-12-06T12:19:35.928Z,152.37
2018-12-06T12:22:17.996Z,149.27
2018-12-06T12:25:01.667Z,157.53
2018-12-06T12:27:45.987Z,161.70
2018-12-06T12:30:35.958Z,162.53
2018-12-06T12:33:26.622Z,164.60
2018-12-06T12:36:10.548Z,163.93
2018-12-06T12:38:52.417Z,185.00
2018-12-06T12:41:35.579Z,164.97
2018-12-06T12:44:19.559Z,170.10
2018-12-06T12:47:02.737Z,170.70
2018-12-06T12:49:46.179Z,182.73
2018-12-06T12:52:28.963Z,190.20
2018-12-06T12:55:12.696Z,182.27
2018-12-06T12:57:56.992Z,157.80
2018-12-06T13:00:39.400Z,146.60
2018-12-06T13:03:22.446Z,124.50
2018-12-06T13:06:06.364Z,123.83
2018-12-06T13:08:48.770Z,132.33
2018-12-06T13:11:33.435Z,111.17
2018-12-06T13:14:17.271Z,95.23
2018-12-06T13:16:59.896Z,91.73
2018-12-06T13:19:42.396Z,86.20
2018-12-06T13:22:25.334Z,77.13
2018-12-06T13:25:08.367Z,68.80
2018-12-06T13:27:51.788Z,71.97
2018-12-06T13:30:34.405Z,69.63
2018-12-06T13:33:20.086Z,69.20
2018-12-06T13:36:02.018Z,69.73
2018-12-06T13:38:47.161Z,65.20
2018-12-06T13:41:29.972Z,57.63
2018-12-06T13:44:14.540Z,52.47
2018-12-06T13:46:58.979Z,67.07
2018-12-06T13:49:42.013Z,53.33
2018-12-06T13:52:24.575Z,60.83
2018-12-06T13:55:08.373Z,60.07
2018-12-06T13:57:52.230Z,57.20
2018-12-06T14:00:36.147Z,62.93
2018-12-06T14:03:19.557Z,61.83
2018-12-06T14:06:04.109Z,61.13
2018-12-06T14:08:47.436Z,58.63
2018-12-06T14:11:32.721Z,57.43
2018-12-06T14:14:15.610Z,62.90
2018-12-06T14:16:58.963Z,59.07
2018-12-06T14:19:40.992Z,55.50
2018-12-06T14:22:25.119Z,53.33
2018-12-06T14:25:08.563Z,49.83
2018-12-06T14:27:52.404Z,51.70
2018-12-06T14:30:37.895Z,56.30
2018-12-06T14:33:36.829Z,53.80
2018-12-06T14:36:20.397Z,54.77
2018-12-06T14:39:06.313Z,50.50
2018-12-06T14:41:49.094Z,46.60
2018-12-06T14:44:32.963Z,55.23
2018-12-06T14:47:15.704Z,40.80
2018-12-06T14:49:59.620Z,44.80
2018-12-06T14:52:43.183Z,42.67
2018-12-06T14:55:26.558Z,44.47
2018-12-06T14:58:11.544Z,38.33
2018-12-06T15:00:57.631Z,43.47
2018-12-06T15:03:42.215Z,36.07
2018-12-06T15:06:28.078Z,35.47
2018-12-06T15:09:14.121Z,37.20
2018-12-06T15:11:58.731Z,37.13
2018-12-06T15:14:42.331Z,35.80
2018-12-06T15:17:26.675Z,31.80
2018-12-06T15:20:12.903Z,29.60
2018-12-06T15:22:57.000Z,31.10
2018-12-06T15:25:42.149Z,34.37
2018-12-06T15:28:26.618Z,25.97
2018-12-06T15:31:10.013Z,34.50
2018-12-06T15:33:56.044Z,34.80
2018-12-06T15:36:40.461Z,35.40
2018-12-06T15:39:28.229Z,28.80
2018-12-06T15:42:12.824Z,39.37
2018-12-06T15:45:19.275Z,35.47
2018-12-06T15:48:04.295Z,32.90
2018-12-06T15:50:48.637Z,28.00
2018-12-06T15:53:35.125Z,33.17
2018-12-06T15:56:18.889Z,29.13
2018-12-06T15:59:03.830Z,26.97
2018-12-06T16:01:47.562Z,25.63
2018-12-06T16:04:32.075Z,29.57
2018-12-06T16:07:15.605Z,38.77
2018-12-06T16:09:59.597Z,35.73
2018-12-06T16:12:43.399Z,36.43
2018-12-06T16:15:27.629Z,30.67
2018-12-06T16:18:13.083Z,27.77
2018-12-06T16:21:01.396Z,34.53
2018-12-06T16:23:44.277Z,28.47
2018-12-06T16:26:29.239Z,29.07
2018-12-06T16:29:12.522Z,27.17
2018-12-06T16:31:56.617Z,22.27
2018-12-06T16:34:40.047Z,27.37
2018-12-06T16:37:26.121Z,28.70
2018-12-06T16:40:08.981Z,24.20
2018-12-06T16:42:52.640Z,23.63
2018-12-06T16:45:37.654Z,25.57
2018-12-06T16:48:23.985Z,24.67
2018-12-06T16:51:08.959Z,25.03
2018-12-06T16:53:55.488Z,27.23
2018-12-06T16:56:40.940Z,26.77
2018-12-06T16:59:24.732Z,22.40
2018-12-06T17:02:07.204Z,32.37
2018-12-06T17:04:50.941Z,24.00
2018-12-06T17:07:34.806Z,22.50
2018-12-06T17:10:22.759Z,24.70
2018-12-06T17:13:06.599Z,24.30
2018-12-06T17:15:51.749Z,19.23
2018-12-06T17:18:35.409Z,31.07
2018-12-06T17:21:19.044Z,22.30
2018-12-06T17:24:02.695Z,26.10
2018-12-06T17:26:53.012Z,19.47
2018-12-06T17:29:42.328Z,22.90
2018-12-06T17:32:25.806Z,19.20
2018-12-06T17:35:10.477Z,23.10
2018-12-06T17:37:55.848Z,27.87
2018-12-06T17:40:40.110Z,18.30
2018-12-06T17:43:23.928Z,23.10
2018-12-06T17:46:08.903Z,20.00
2018-12-06T17:48:52.822Z,21.00
2018-12-06T17:51:37.094Z,23.47
2018-12-06T17:54:24.236Z,18.80
2018-12-06T17:57:07.436Z,23.77
2018-12-06T17:59:50.736Z,28.03
2018-12-06T18:02:36.557Z,22.50
2018-12-06T18:05:20.297Z,22.17
2018-12-06T18:08:05.484Z,19.03
2018-12-06T18:10:50.187Z,22.33
2018-12-06T18:13:35.148Z,18.70
2018-12-06T18:16:19.706Z,21.67
2018-12-06T18:19:03.855Z,21.90
2018-12-06T18:21:47.115Z,20.93
2018-12-06T18:24:32.366Z,19.70
2018-12-06T18:27:16.987Z,18.53
2018-12-06T18:30:00.895Z,20.53
2018-12-06T18:32:45.113Z,21.33
2018-12-06T18:35:29.869Z,25.20
2018-12-06T18:38:14.459Z,21.40
2018-12-06T18:40:57.427Z,21.37
2018-12-06T18:43:43.389Z,20.63
2018-12-06T18:46:27.977Z,23.57
2018-12-06T18:49:13.341Z,20.63
2018-12-06T18:51:57.872Z,22.93
2018-12-06T18:54:41.659Z,20.93
2018-12-06T18:57:24.371Z,19.97
2018-12-06T19:00:11.725Z,22.53
2018-12-06T19:02:56.436Z,20.33
2018-12-06T19:05:39.974Z,18.43
2018-12-06T19:08:26.938Z,18.30
2018-12-06T19:11:11.716Z,21.83
2018-12-06T19:13:55.258Z,25.20
2018-12-06T19:16:38.917Z,17.67
2018-12-06T19:19:24.129Z,18.60
2018-12-06T19:22:08.932Z,20.10
2018-12-06T19:24:53.432Z,20.60
2018-12-06T19:27:39.609Z,20.50
2018-12-06T19:30:23.852Z,19.40
2018-12-06T19:33:08.606Z,23.53
2018-12-06T19:35:52.803Z,22.10
2018-12-06T19:38:37.051Z,18.53
2018-12-06T19:41:20.837Z,22.53
2018-12-06T19:44:04.486Z,19.57
2018-12-06T19:46:50.154Z,19.40
2018-12-06T19:49:34.915Z,19.03
2018-12-06T19:52:19.097Z,19.80
2018-12-06T19:55:02.214Z,24.00
2018-12-06T19:57:46.874Z,23.87
2018-12-06T20:00:31.028Z,21.30
2018-12-06T20:03:14.582Z,22.23
2018-12-06T20:05:59.713Z,21.87
2018-12-06T20:08:45.645Z,26.53
2018-12-06T20:11:30.248Z,23.07
2018-12-06T20:14:15.593Z,22.10
2018-12-06T20:17:02.716Z,24.83
2018-12-06T20:19:46.694Z,26.03
2018-12-06T20:22:33.204Z,26.73
2018-12-06T20:25:16.794Z,28.40
2018-12-06T20:28:00.917Z,26.83
2018-12-06T20:30:45.372Z,28.67
2018-12-06T20:33:28.820Z,26.53
2018-12-06T20:36:14.225Z,23.47
2018-12-06T20:38:57.099Z,30.00
2018-12-06T20:41:45.161Z,24.27
2018-12-06T20:44:28.672Z,23.97
2018-12-06T20:47:16.897Z,28.20
2018-12-06T20:50:00.072Z,23.03
2018-12-06T20:52:43.598Z,26.93
2018-12-06T20:55:27.909Z,29.60
2018-12-06T20:58:15.223Z,26.70
2018-12-06T21:01:00.487Z,30.30
2018-12-06T21:03:46.052Z,28.17
2018-12-06T21:06:30.279Z,31.60
2018-12-06T21:09:13.841Z,33.13
2018-12-06T21:11:55.812Z,30.40
2018-12-06T21:14:39.043Z,33.23
2018-12-06T21:17:24.558Z,31.53
2018-12-06T21:20:09.439Z,34.00
2018-12-06T21:22:52.863Z,37.23
2018-12-06T21:25:35.991Z,38.73
2018-12-06T21:28:19.112Z,32.60
2018-12-06T21:31:03.410Z,40.40
2018-12-06T21:33:47.249Z,34.87
2018-12-06T21:36:31.197Z,35.53
2018-12-06T21:39:14.370Z,35.53
2018-12-06T21:41:57.265Z,43.23
2018-12-06T21:44:39.919Z,36.57
2018-12-06T21:47:29.590Z,39.87
2018-12-06T21:50:16.866Z,38.17
2018-12-06T21:53:04.791Z,41.83
2018-12-06T21:55:56.165Z,37.93
2018-12-06T21:58:50.459Z,38.20
2018-12-06T22:01:35.212Z,35.87
2018-12-06T22:04:17.475Z,34.70
2018-12-06T22:07:01.842Z,34.97
2018-12-06T22:09:45.478Z,35.67
2018-12-06T22:12:27.851Z,35.60
2018-12-06T22:15:11.994Z,40.77
2018-12-06T22:17:55.270Z,39.77
2018-12-06T22:20:37.705Z,35.63
2018-12-06T22:23:21.623Z,34.20
2018-12-06T22:26:04.447Z,34.57
2018-12-06T22:28:47.824Z,35.60
2018-12-06T22:31:32.889Z,32.40
2018-12-06T22:34:15.324Z,33.73
2018-12-06T22:36:58.612Z,35.83
2018-12-06T22:39:43.143Z,34.93
2018-12-06T22:42:26.723Z,35.37
2018-12-06T22:45:25.717Z,33.50
2018-12-06T22:48:09.336Z,36.23
2018-12-06T22:50:51.924Z,35.67
2018-12-06T22:53:35.067Z,38.77
2018-12-06T22:56:17.899Z,35.80
2018-12-06T22:59:00.202Z,38.10
2018-12-06T23:01:44.215Z,35.77
2018-12-06T23:04:26.503Z,35.77
2018-12-06T23:07:09.747Z,30.53
2018-12-06T23:09:53.489Z,33.60
2018-12-06T23:12:35.514Z,33.10
2018-12-06T23:15:20.082Z,38.47
2018-12-06T23:18:03.273Z,43.40
2018-12-06T23:20:45.775Z,42.33
2018-12-06T23:23:28.020Z,43.90
2018-12-06T23:26:10.795Z,45.47
2018-12-06T23:28:53.158Z,49.40
2018-12-06T23:31:36.810Z,50.80
2018-12-06T23:34:19.147Z,53.20
2018-12-06T23:37:01.903Z,53.60
2018-12-06T23:39:44.181Z,53.00
2018-12-06T23:42:27.667Z,55.97
2018-12-06T23:45:12.155Z,60.00
2018-12-06T23:47:56.041Z,62.60
2018-12-06T23:50:38.431Z,63.33
2018-12-06T23:53:20.749Z,61.20
2018-12-06T23:56:03.569Z,63.13
2018-12-06T23:58:46.172Z,54.23
